sensor_id;sensor_type;location;lat;lon;timestamp;temperature;humidity
26721;HTU21D;15950;51.112;6.966;2022-07-23T00:00:42;19.26;99.99
26721;HTU21D;15950;51.112;6.966;2022-07-23T00:02:42;19.48;99.99
26721;HTU21D;15950;51.112;6.966;2022-07-23T00:04:42;19.51;99.99
26721;HTU21D;15950;51.112;6.966;2022-07-23T00:06:42;19.48;99.99
26721;HTU21D;15950;51.112;6.966;2022-07-23T00:08:43;19.52;99.99
26721;HTU21D;15950;51.112;6.966;2022-07-23T00:10:43;19.51;99.99
26721;HTU21D;15950;51.112;6.966;2022-07-23T00:12:43;19.58;99.99
26721;HTU21D;15950;51.112;6.966;2022-07-23T00:14:43;19.69;99.99
26721;HTU21D;15950;51.112;6.966;2022-07-23T00:16:44;19.79;99.99
26721;HTU21D;15950;51.112;6.966;2022-07-23T00:18:44;19.69;99.99
26721;HTU21D;15950;51.112;6.966;2022-07-23T00:20:45;19.64;99.99
26721;HTU21D;15950;51.112;6.966;2022-07-23T00:22:46;19.64;99.81
26721;HTU21D;15950;51.112;6.966;2022-07-23T00:24:45;19.84;98.71
26721;HTU21D;15950;51.112;6.966;2022-07-23T00:26:45;19.89;99.46
26721;HTU21D;15950;51.112;6.966;2022-07-23T00:28:46;19.70;99.52
26721;HTU21D;15950;51.112;6.966;2022-07-23T00:30:46;19.44;99.99
26721;HTU21D;15950;51.112;6.966;2022-07-23T00:32:52;19.09;99.99
26721;HTU21D;15950;51.112;6.966;2022-07-23T00:34:47;19.24;99.99
26721;HTU21D;15950;51.112;6.966;2022-07-23T00:36:47;19.04;99.99
26721;HTU21D;15950;51.112;6.966;2022-07-23T00:38:47;19.02;99.99
26721;HTU21D;15950;51.112;6.966;2022-07-23T00:40:48;18.83;99.99
26721;HTU21D;15950;51.112;6.966;2022-07-23T00:42:48;18.81;99.99
26721;HTU21D;15950;51.112;6.966;2022-07-23T00:44:48;19.14;99.99
26721;HTU21D;15950;51.112;6.966;2022-07-23T00:46:54;19.36;99.99
26721;HTU21D;15950;51.112;6.966;2022-07-23T00:48:49;19.55;99.35
26721;HTU21D;15950;51.112;6.966;2022-07-23T00:50:49;19.56;99.99
26721;HTU21D;15950;51.112;6.966;2022-07-23T00:52:50;19.71;99.11
26721;HTU21D;15950;51.112;6.966;2022-07-23T00:54:50;19.84;98.66
26721;HTU21D;15950;51.112;6.966;2022-07-23T00:56:50;19.92;97.85
26721;HTU21D;15950;51.112;6.966;2022-07-23T00:58:50;19.96;98.51
26721;HTU21D;15950;51.112;6.966;2022-07-23T01:00:50;19.91;99.11
26721;HTU21D;15950;51.112;6.966;2022-07-23T01:02:51;19.81;99.11
26721;HTU21D;15950;51.112;6.966;2022-07-23T01:04:51;19.69;99.46
26721;HTU21D;15950;51.112;6.966;2022-07-23T01:06:51;19.73;99.06
26721;HTU21D;15950;51.112;6.966;2022-07-23T01:08:56;19.77;98.36
26721;HTU21D;15950;51.112;6.966;2022-07-23T01:10:52;19.58;99.56
26721;HTU21D;15950;51.112;6.966;2022-07-23T01:12:52;19.54;99.81
26721;HTU21D;15950;51.112;6.966;2022-07-23T01:14:57;19.67;99.11
26721;HTU21D;15950;51.112;6.966;2022-07-23T01:16:52;19.36;99.99
26721;HTU21D;15950;51.112;6.966;2022-07-23T01:18:53;19.26;99.99
26721;HTU21D;15950;51.112;6.966;2022-07-23T01:20:53;19.49;99.96
26721;HTU21D;15950;51.112;6.966;2022-07-23T01:22:54;19.31;99.99
26721;HTU21D;15950;51.112;6.966;2022-07-23T01:24:53;19.16;99.99
26721;HTU21D;15950;51.112;6.966;2022-07-23T01:26:54;19.30;99.99
26721;HTU21D;15950;51.112;6.966;2022-07-23T01:28:54;19.54;99.99
26721;HTU21D;15950;51.112;6.966;2022-07-23T01:30:54;19.44;99.99
26721;HTU21D;15950;51.112;6.966;2022-07-23T01:32:54;19.49;99.81
26721;HTU21D;15950;51.112;6.966;2022-07-23T01:34:55;19.16;99.99
26721;HTU21D;15950;51.112;6.966;2022-07-23T01:36:55;19.16;99.99
26721;HTU21D;15950;51.112;6.966;2022-07-23T01:38:55;19.41;99.99
26721;HTU21D;15950;51.112;6.966;2022-07-23T01:40:55;19.12;99.99
26721;HTU21D;15950;51.112;6.966;2022-07-23T01:42:56;19.30;99.99
26721;HTU21D;15950;51.112;6.966;2022-07-23T01:44:56;19.41;99.99
26721;HTU21D;15950;51.112;6.966;2022-07-23T01:46:57;19.47;99.99
26721;HTU21D;15950;51.112;6.966;2022-07-23T01:48:57;19.62;99.41
26721;HTU21D;15950;51.112;6.966;2022-07-23T01:50:57;19.56;99.99
26721;HTU21D;15950;51.112;6.966;2022-07-23T01:52:57;19.67;99.31
26721;HTU21D;15950;51.112;6.966;2022-07-23T01:54:58;19.64;99.96
26721;HTU21D;15950;51.112;6.966;2022-07-23T01:56:59;19.49;99.51
26721;HTU21D;15950;51.112;6.966;2022-07-23T01:58:59;19.30;99.99
26721;HTU21D;15950;51.112;6.966;2022-07-23T02:00:59;19.31;99.99
26721;HTU21D;15950;51.112;6.966;2022-07-23T02:02:59;19.45;99.66
26721;HTU21D;15950;51.112;6.966;2022-07-23T02:04:59;19.54;98.60
26721;HTU21D;15950;51.112;6.966;2022-07-23T02:07:00;19.47;99.41
26721;HTU21D;15950;51.112;6.966;2022-07-23T02:09:00;19.26;99.99
26721;HTU21D;15950;51.112;6.966;2022-07-23T02:11:00;19.19;99.86
26721;HTU21D;15950;51.112;6.966;2022-07-23T02:13:01;19.39;99.26
26721;HTU21D;15950;51.112;6.966;2022-07-23T02:15:01;19.44;98.85
26721;HTU21D;15950;51.112;6.966;2022-07-23T02:17:01;19.47;98.91
26721;HTU21D;15950;51.112;6.966;2022-07-23T02:19:03;19.47;98.30
26721;HTU21D;15950;51.112;6.966;2022-07-23T02:21:02;19.31;98.71
26721;HTU21D;15950;51.112;6.966;2022-07-23T02:23:02;18.75;99.99
26721;HTU21D;15950;51.112;6.966;2022-07-23T02:25:04;18.96;99.99
26721;HTU21D;15950;51.112;6.966;2022-07-23T02:27:02;18.96;99.51
26721;HTU21D;15950;51.112;6.966;2022-07-23T02:29:03;19.04;99.20
26721;HTU21D;15950;51.112;6.966;2022-07-23T02:31:03;19.12;99.30
26721;HTU21D;15950;51.112;6.966;2022-07-23T02:33:04;19.22;97.99
26721;HTU21D;15950;51.112;6.966;2022-07-23T02:35:04;19.26;98.15
26721;HTU21D;15950;51.112;6.966;2022-07-23T02:37:04;18.83;99.86
26721;HTU21D;15950;51.112;6.966;2022-07-23T02:39:05;18.86;99.45
26721;HTU21D;15950;51.112;6.966;2022-07-23T02:41:06;18.74;99.99
26721;HTU21D;15950;51.112;6.966;2022-07-23T02:43:05;18.83;99.95
26721;HTU21D;15950;51.112;6.966;2022-07-23T02:45:06;18.98;99.15
26721;HTU21D;15950;51.112;6.966;2022-07-23T02:47:06;18.73;99.99
26721;HTU21D;15950;51.112;6.966;2022-07-23T02:49:06;18.95;99.05
26721;HTU21D;15950;51.112;6.966;2022-07-23T02:51:06;18.83;99.20
26721;HTU21D;15950;51.112;6.966;2022-07-23T02:53:06;18.77;99.35
26721;HTU21D;15950;51.112;6.966;2022-07-23T02:55:07;18.73;99.95
26721;HTU21D;15950;51.112;6.966;2022-07-23T02:57:07;18.83;99.45
26721;HTU21D;15950;51.112;6.966;2022-07-23T02:59:07;18.84;98.85
26721;HTU21D;15950;51.112;6.966;2022-07-23T03:01:08;18.66;99.75
26721;HTU21D;15950;51.112;6.966;2022-07-23T03:03:09;18.56;99.99
26721;HTU21D;15950;51.112;6.966;2022-07-23T03:05:08;18.59;99.90
26721;HTU21D;15950;51.112;6.966;2022-07-23T03:07:08;18.66;99.60
26721;HTU21D;15950;51.112;6.966;2022-07-23T03:09:09;18.80;98.79
26721;HTU21D;15950;51.112;6.966;2022-07-23T03:11:09;18.62;99.95
26721;HTU21D;15950;51.112;6.966;2022-07-23T03:13:09;18.59;99.40
26721;HTU21D;15950;51.112;6.966;2022-07-23T03:15:10;18.43;99.99
26721;HTU21D;15950;51.112;6.966;2022-07-23T03:17:10;18.59;99.24
26721;HTU21D;15950;51.112;6.966;2022-07-23T03:19:10;18.68;99.10
26721;HTU21D;15950;51.112;6.966;2022-07-23T03:21:11;18.71;98.49
26721;HTU21D;15950;51.112;6.966;2022-07-23T03:23:11;18.73;98.09
26721;HTU21D;15950;51.112;6.966;2022-07-23T03:25:11;18.78;97.84
26721;HTU21D;15950;51.112;6.966;2022-07-23T03:27:11;18.63;97.74
26721;HTU21D;15950;51.112;6.966;2022-07-23T03:29:11;18.52;98.49
26721;HTU21D;15950;51.112;6.966;2022-07-23T03:31:12;18.33;99.19
26721;HTU21D;15950;51.112;6.966;2022-07-23T03:33:13;18.44;98.33
26721;HTU21D;15950;51.112;6.966;2022-07-23T03:35:12;18.53;98.24
26721;HTU21D;15950;51.112;6.966;2022-07-23T03:37:12;18.38;99.40
26721;HTU21D;15950;51.112;6.966;2022-07-23T03:39:12;18.50;98.54
26721;HTU21D;15950;51.112;6.966;2022-07-23T03:41:13;18.31;98.69
26721;HTU21D;15950;51.112;6.966;2022-07-23T03:43:13;18.23;99.54
26721;HTU21D;15950;51.112;6.966;2022-07-23T03:45:13;18.22;99.69
26721;HTU21D;15950;51.112;6.966;2022-07-23T03:47:13;18.22;99.59
26721;HTU21D;15950;51.112;6.966;2022-07-23T03:49:14;18.25;98.68
26721;HTU21D;15950;51.112;6.966;2022-07-23T03:51:14;18.33;98.08
26721;HTU21D;15950;51.112;6.966;2022-07-23T03:53:14;18.37;98.03
26721;HTU21D;15950;51.112;6.966;2022-07-23T03:55:14;18.41;97.73
26721;HTU21D;15950;51.112;6.966;2022-07-23T03:57:15;18.45;97.43
26721;HTU21D;15950;51.112;6.966;2022-07-23T03:59:15;18.38;97.93
26721;HTU21D;15950;51.112;6.966;2022-07-23T04:01:15;18.20;98.44
26721;HTU21D;15950;51.112;6.966;2022-07-23T04:03:16;18.35;97.78
26721;HTU21D;15950;51.112;6.966;2022-07-23T04:05:16;18.20;98.84
26721;HTU21D;15950;51.112;6.966;2022-07-23T04:07:17;18.23;98.48
26721;HTU21D;15950;51.112;6.966;2022-07-23T04:09:17;18.41;96.97
26721;HTU21D;15950;51.112;6.966;2022-07-23T04:11:17;18.47;97.33
26721;HTU21D;15950;51.112;6.966;2022-07-23T04:13:17;18.41;97.83
26721;HTU21D;15950;51.112;6.966;2022-07-23T04:15:18;18.26;98.33
26721;HTU21D;15950;51.112;6.966;2022-07-23T04:17:18;18.22;98.54
26721;HTU21D;15950;51.112;6.966;2022-07-23T04:19:18;18.18;98.48
26721;HTU21D;15950;51.112;6.966;2022-07-23T04:21:18;18.13;99.29
26721;HTU21D;15950;51.112;6.966;2022-07-23T04:23:19;18.04;99.59
26721;HTU21D;15950;51.112;6.966;2022-07-23T04:25:20;18.22;98.79
26721;HTU21D;15950;51.112;6.966;2022-07-23T04:27:19;18.28;98.88
26721;HTU21D;15950;51.112;6.966;2022-07-23T04:29:19;18.31;98.54
26721;HTU21D;15950;51.112;6.966;2022-07-23T04:31:19;18.29;98.74
26721;HTU21D;15950;51.112;6.966;2022-07-23T04:33:19;18.43;98.13
26721;HTU21D;15950;51.112;6.966;2022-07-23T04:35:20;18.44;98.24
26721;HTU21D;15950;51.112;6.966;2022-07-23T04:37:20;18.38;98.84
26721;HTU21D;15950;51.112;6.966;2022-07-23T04:39:20;18.19;99.99
26721;HTU21D;15950;51.112;6.966;2022-07-23T04:41:20;18.31;98.58
26721;HTU21D;15950;51.112;6.966;2022-07-23T04:43:20;18.38;98.94
26721;HTU21D;15950;51.112;6.966;2022-07-23T04:45:21;18.47;98.24
26721;HTU21D;15950;51.112;6.966;2022-07-23T04:47:21;18.52;98.44
26721;HTU21D;15950;51.112;6.966;2022-07-23T04:49:21;18.56;98.29
26721;HTU21D;15950;51.112;6.966;2022-07-23T04:51:21;18.62;97.78
26721;HTU21D;15950;51.112;6.966;2022-07-23T04:53:22;18.70;96.68
26721;HTU21D;15950;51.112;6.966;2022-07-23T04:55:22;18.68;98.79
26721;HTU21D;15950;51.112;6.966;2022-07-23T04:57:22;18.71;98.39
26721;HTU21D;15950;51.112;6.966;2022-07-23T04:59:22;18.77;96.98
26721;HTU21D;15950;51.112;6.966;2022-07-23T05:01:22;18.73;99.05
26721;HTU21D;15950;51.112;6.966;2022-07-23T05:03:23;18.83;98.04
26721;HTU21D;15950;51.112;6.966;2022-07-23T05:05:23;18.71;99.99
26721;HTU21D;15950;51.112;6.966;2022-07-23T05:07:24;18.75;99.19
26721;HTU21D;15950;51.112;6.966;2022-07-23T05:09:24;18.75;99.95
26721;HTU21D;15950;51.112;6.966;2022-07-23T05:11:23;18.50;99.99
26721;HTU21D;15950;51.112;6.966;2022-07-23T05:13:24;18.28;99.99
26721;HTU21D;15950;51.112;6.966;2022-07-23T05:15:24;18.26;99.99
26721;HTU21D;15950;51.112;6.966;2022-07-23T05:17:24;18.33;99.99
26721;HTU21D;15950;51.112;6.966;2022-07-23T05:19:24;18.33;99.99
26721;HTU21D;15950;51.112;6.966;2022-07-23T05:21:25;18.31;99.99
26721;HTU21D;15950;51.112;6.966;2022-07-23T05:23:25;18.31;99.99
26721;HTU21D;15950;51.112;6.966;2022-07-23T05:25:25;18.31;99.99
26721;HTU21D;15950;51.112;6.966;2022-07-23T05:27:26;18.33;99.99
26721;HTU21D;15950;51.112;6.966;2022-07-23T05:29:26;18.38;99.99
26721;HTU21D;15950;51.112;6.966;2022-07-23T05:31:26;18.41;99.99
26721;HTU21D;15950;51.112;6.966;2022-07-23T05:33:26;18.58;99.99
26721;HTU21D;15950;51.112;6.966;2022-07-23T05:35:27;18.38;99.99
26721;HTU21D;15950;51.112;6.966;2022-07-23T05:37:27;18.19;99.99
26721;HTU21D;15950;51.112;6.966;2022-07-23T05:39:27;18.33;99.99
26721;HTU21D;15950;51.112;6.966;2022-07-23T05:41:28;18.44;99.99
26721;HTU21D;15950;51.112;6.966;2022-07-23T05:43:28;18.62;99.99
26721;HTU21D;15950;51.112;6.966;2022-07-23T05:45:28;18.66;99.99
26721;HTU21D;15950;51.112;6.966;2022-07-23T05:47:29;18.68;99.99
26721;HTU21D;15950;51.112;6.966;2022-07-23T05:49:29;18.74;99.99
26721;HTU21D;15950;51.112;6.966;2022-07-23T05:51:29;18.66;99.99
26721;HTU21D;15950;51.112;6.966;2022-07-23T05:53:30;18.53;99.99
26721;HTU21D;15950;51.112;6.966;2022-07-23T05:55:30;18.70;99.99
26721;HTU21D;15950;51.112;6.966;2022-07-23T05:57:30;18.71;99.99
26721;HTU21D;15950;51.112;6.966;2022-07-23T05:59:30;18.73;99.99
26721;HTU21D;15950;51.112;6.966;2022-07-23T06:01:30;18.73;99.99
26721;HTU21D;15950;51.112;6.966;2022-07-23T06:03:31;18.70;99.99
26721;HTU21D;15950;51.112;6.966;2022-07-23T06:05:31;18.65;99.99
26721;HTU21D;15950;51.112;6.966;2022-07-23T06:07:31;18.70;99.99
26721;HTU21D;15950;51.112;6.966;2022-07-23T06:09:31;18.53;99.99
26721;HTU21D;15950;51.112;6.966;2022-07-23T06:11:32;18.59;99.99
26721;HTU21D;15950;51.112;6.966;2022-07-23T06:13:32;18.70;99.99
26721;HTU21D;15950;51.112;6.966;2022-07-23T06:15:32;18.50;99.99
26721;HTU21D;15950;51.112;6.966;2022-07-23T06:17:32;18.63;99.99
26721;HTU21D;15950;51.112;6.966;2022-07-23T06:19:32;18.84;99.99
26721;HTU21D;15950;51.112;6.966;2022-07-23T06:21:33;18.88;99.99
26721;HTU21D;15950;51.112;6.966;2022-07-23T06:23:33;18.95;99.99
26721;HTU21D;15950;51.112;6.966;2022-07-23T06:25:33;18.92;99.99
26721;HTU21D;15950;51.112;6.966;2022-07-23T06:27:33;19.11;99.99
26721;HTU21D;15950;51.112;6.966;2022-07-23T06:29:34;18.74;99.99
26721;HTU21D;15950;51.112;6.966;2022-07-23T06:31:34;18.81;99.99
26721;HTU21D;15950;51.112;6.966;2022-07-23T06:33:34;18.86;99.99
26721;HTU21D;15950;51.112;6.966;2022-07-23T06:35:34;19.02;99.99
26721;HTU21D;15950;51.112;6.966;2022-07-23T06:37:35;18.88;99.99
26721;HTU21D;15950;51.112;6.966;2022-07-23T06:39:35;18.70;99.99
26721;HTU21D;15950;51.112;6.966;2022-07-23T06:41:35;18.73;99.99
26721;HTU21D;15950;51.112;6.966;2022-07-23T06:43:35;18.59;99.99
26721;HTU21D;15950;51.112;6.966;2022-07-23T06:45:35;18.70;99.99
26721;HTU21D;15950;51.112;6.966;2022-07-23T06:47:36;18.98;99.99
26721;HTU21D;15950;51.112;6.966;2022-07-23T06:49:36;18.74;99.99
26721;HTU21D;15950;51.112;6.966;2022-07-23T06:51:36;18.59;99.99
26721;HTU21D;15950;51.112;6.966;2022-07-23T06:53:36;18.65;99.99
26721;HTU21D;15950;51.112;6.966;2022-07-23T06:55:36;18.86;99.99
26721;HTU21D;15950;51.112;6.966;2022-07-23T06:57:37;19.00;99.99
26721;HTU21D;15950;51.112;6.966;2022-07-23T06:59:37;18.74;99.99
26721;HTU21D;15950;51.112;6.966;2022-07-23T07:01:37;18.81;99.99
26721;HTU21D;15950;51.112;6.966;2022-07-23T07:03:37;18.73;99.99
26721;HTU21D;15950;51.112;6.966;2022-07-23T07:05:38;18.63;99.99
26721;HTU21D;15950;51.112;6.966;2022-07-23T07:07:38;18.65;99.99
26721;HTU21D;15950;51.112;6.966;2022-07-23T07:09:38;18.89;99.99
26721;HTU21D;15950;51.112;6.966;2022-07-23T07:11:38;19.18;99.99
26721;HTU21D;15950;51.112;6.966;2022-07-23T07:13:38;18.96;99.99
26721;HTU21D;15950;51.112;6.966;2022-07-23T07:15:39;19.52;99.99
26721;HTU21D;15950;51.112;6.966;2022-07-23T07:17:39;19.45;98.91
26721;HTU21D;15950;51.112;6.966;2022-07-23T07:19:39;19.77;99.99
26721;HTU21D;15950;51.112;6.966;2022-07-23T07:21:39;19.40;99.56
26721;HTU21D;15950;51.112;6.966;2022-07-23T07:23:40;19.36;99.55
26721;HTU21D;15950;51.112;6.966;2022-07-23T07:25:40;19.27;99.99
26721;HTU21D;15950;51.112;6.966;2022-07-23T07:27:40;19.27;99.99
26721;HTU21D;15950;51.112;6.966;2022-07-23T07:29:41;19.22;99.99
26721;HTU21D;15950;51.112;6.966;2022-07-23T07:31:41;19.22;99.66
26721;HTU21D;15950;51.112;6.966;2022-07-23T07:33:41;19.59;99.96
26721;HTU21D;15950;51.112;6.966;2022-07-23T07:35:41;19.70;99.01
26721;HTU21D;15950;51.112;6.966;2022-07-23T07:37:42;19.54;98.56
26721;HTU21D;15950;51.112;6.966;2022-07-23T07:39:42;19.59;97.50
26721;HTU21D;15950;51.112;6.966;2022-07-23T07:41:42;19.49;99.41
26721;HTU21D;15950;51.112;6.966;2022-07-23T07:43:42;19.51;96.39
26721;HTU21D;15950;51.112;6.966;2022-07-23T07:45:42;19.86;98.71
26721;HTU21D;15950;51.112;6.966;2022-07-23T07:47:43;19.73;97.25
26721;HTU21D;15950;51.112;6.966;2022-07-23T07:49:43;19.79;98.05
26721;HTU21D;15950;51.112;6.966;2022-07-23T07:51:43;20.06;95.95
26721;HTU21D;15950;51.112;6.966;2022-07-23T07:53:43;20.00;95.30
26721;HTU21D;15950;51.112;6.966;2022-07-23T07:55:44;20.02;94.20
26721;HTU21D;15950;51.112;6.966;2022-07-23T07:57:44;20.00;93.99
26721;HTU21D;15950;51.112;6.966;2022-07-23T07:59:44;19.92;94.29
26721;HTU21D;15950;51.112;6.966;2022-07-23T08:01:44;19.86;94.70
26721;HTU21D;15950;51.112;6.966;2022-07-23T08:03:45;19.99;93.84
26721;HTU21D;15950;51.112;6.966;2022-07-23T08:05:45;20.09;94.39
26721;HTU21D;15950;51.112;6.966;2022-07-23T08:07:46;20.02;94.70
26721;HTU21D;15950;51.112;6.966;2022-07-23T08:09:46;20.21;96.50
26721;HTU21D;15950;51.112;6.966;2022-07-23T08:11:46;20.25;93.55
26721;HTU21D;15950;51.112;6.966;2022-07-23T08:13:46;20.09;92.84
26721;HTU21D;15950;51.112;6.966;2022-07-23T08:15:47;19.99;90.68
26721;HTU21D;15950;51.112;6.966;2022-07-23T08:17:48;20.02;90.28
26721;HTU21D;15950;51.112;6.966;2022-07-23T08:19:48;20.07;90.08
26721;HTU21D;15950;51.112;6.966;2022-07-23T08:21:48;19.95;90.68
26721;HTU21D;15950;51.112;6.966;2022-07-23T08:23:48;19.99;90.98
26721;HTU21D;15950;51.112;6.966;2022-07-23T08:25:48;20.14;92.08
26721;HTU21D;15950;51.112;6.966;2022-07-23T08:27:49;20.25;90.53
26721;HTU21D;15950;51.112;6.966;2022-07-23T08:29:49;20.21;90.03
26721;HTU21D;15950;51.112;6.966;2022-07-23T08:31:49;20.21;89.53
26721;HTU21D;15950;51.112;6.966;2022-07-23T08:33:49;20.24;91.34
26721;HTU21D;15950;51.112;6.966;2022-07-23T08:35:50;20.25;90.94
26721;HTU21D;15950;51.112;6.966;2022-07-23T08:37:50;20.55;90.44
26721;HTU21D;15950;51.112;6.966;2022-07-23T08:39:50;20.56;88.99
26721;HTU21D;15950;51.112;6.966;2022-07-23T08:41:50;20.80;89.09
26721;HTU21D;15950;51.112;6.966;2022-07-23T08:43:51;20.90;88.34
26721;HTU21D;15950;51.112;6.966;2022-07-23T08:45:54;21.00;88.40
26721;HTU21D;15950;51.112;6.966;2022-07-23T08:47:56;21.14;85.80
26721;HTU21D;15950;51.112;6.966;2022-07-23T08:49:52;20.82;87.46
26721;HTU21D;15950;51.112;6.966;2022-07-23T08:51:53;20.70;87.50
26721;HTU21D;15950;51.112;6.966;2022-07-23T08:53:53;20.67;87.64
26721;HTU21D;15950;51.112;6.966;2022-07-23T08:55:56;20.75;87.04
26721;HTU21D;15950;51.112;6.966;2022-07-23T08:57:54;20.75;86.94
26721;HTU21D;15950;51.112;6.966;2022-07-23T08:59:54;20.99;87.64
26721;HTU21D;15950;51.112;6.966;2022-07-23T09:01:54;20.96;86.90
26721;HTU21D;15950;51.112;6.966;2022-07-23T09:03:55;21.32;86.60
26721;HTU21D;15950;51.112;6.966;2022-07-23T09:05:56;21.43;86.11
26721;HTU21D;15950;51.112;6.966;2022-07-23T09:12:04;21.07;85.96
26721;HTU21D;15950;51.112;6.966;2022-07-23T09:13:56;20.96;85.75
26721;HTU21D;15950;51.112;6.966;2022-07-23T09:16:02;21.42;84.99
26721;HTU21D;15950;51.112;6.966;2022-07-23T09:17:57;21.60;85.31
26721;HTU21D;15950;51.112;6.966;2022-07-23T09:26:00;20.84;84.09
26721;HTU21D;15950;51.112;6.966;2022-07-23T09:28:00;21.46;84.39
26721;HTU21D;15950;51.112;6.966;2022-07-23T09:29:59;21.54;82.41
26721;HTU21D;15950;51.112;6.966;2022-07-23T09:32:01;21.73;84.17
26721;HTU21D;15950;51.112;6.966;2022-07-23T09:36:00;21.85;81.77
26721;HTU21D;15950;51.112;6.966;2022-07-23T09:38:01;21.30;80.93
26721;HTU21D;15950;51.112;6.966;2022-07-23T09:40:08;21.17;81.30
26721;HTU21D;15950;51.112;6.966;2022-07-23T09:44:08;21.62;80.54
26721;HTU21D;15950;51.112;6.966;2022-07-23T09:50:08;21.51;80.51
26721;HTU21D;15950;51.112;6.966;2022-07-23T09:52:03;21.54;80.91
26721;HTU21D;15950;51.112;6.966;2022-07-23T09:54:04;21.54;81.17
26721;HTU21D;15950;51.112;6.966;2022-07-23T09:56:04;21.50;80.87
26721;HTU21D;15950;51.112;6.966;2022-07-23T09:58:06;21.85;81.01
26721;HTU21D;15950;51.112;6.966;2022-07-23T10:00:06;22.25;81.63
26721;HTU21D;15950;51.112;6.966;2022-07-23T10:02:06;22.59;79.25
26721;HTU21D;15950;51.112;6.966;2022-07-23T10:04:05;22.45;76.92
26721;HTU21D;15950;51.112;6.966;2022-07-23T10:06:05;22.57;80.55
26721;HTU21D;15950;51.112;6.966;2022-07-23T10:08:06;22.23;78.81
26721;HTU21D;15950;51.112;6.966;2022-07-23T10:10:06;22.10;78.39
26721;HTU21D;15950;51.112;6.966;2022-07-23T10:12:11;22.02;77.69
26721;HTU21D;15950;51.112;6.966;2022-07-23T10:14:06;22.22;76.99
26721;HTU21D;15950;51.112;6.966;2022-07-23T10:16:07;22.63;78.09
26721;HTU21D;15950;51.112;6.966;2022-07-23T10:18:09;22.38;74.52
26721;HTU21D;15950;51.112;6.966;2022-07-23T10:20:07;22.28;74.55
26721;HTU21D;15950;51.112;6.966;2022-07-23T10:22:13;22.41;75.35
26721;HTU21D;15950;51.112;6.966;2022-07-23T10:36:22;22.36;74.55
26721;HTU21D;15950;51.112;6.966;2022-07-23T10:42:15;22.38;71.36
26721;HTU21D;15950;51.112;6.966;2022-07-23T10:46:23;22.45;72.56
26721;HTU21D;15950;51.112;6.966;2022-07-23T10:48:17;22.55;72.56
26721;HTU21D;15950;51.112;6.966;2022-07-23T10:50:18;22.69;72.32
26721;HTU21D;15950;51.112;6.966;2022-07-23T10:54:21;22.78;72.59
26721;HTU21D;15950;51.112;6.966;2022-07-23T10:56:13;23.13;73.99
26721;HTU21D;15950;51.112;6.966;2022-07-23T11:02:22;23.41;69.73
26721;HTU21D;15950;51.112;6.966;2022-07-23T11:04:15;23.37;71.59
26721;HTU21D;15950;51.112;6.966;2022-07-23T11:06:17;23.21;70.62
26721;HTU21D;15950;51.112;6.966;2022-07-23T11:08:17;23.12;69.13
26721;HTU21D;15950;51.112;6.966;2022-07-23T11:14:55;23.20;69.92
26721;HTU21D;15950;51.112;6.966;2022-07-23T11:16:19;23.17;70.62
26721;HTU21D;15950;51.112;6.966;2022-07-23T11:18:17;23.71;69.53
26721;HTU21D;15950;51.112;6.966;2022-07-23T11:20:20;23.31;65.67
26721;HTU21D;15950;51.112;6.966;2022-07-23T11:24:19;23.54;65.64
26721;HTU21D;15950;51.112;6.966;2022-07-23T11:28:18;23.77;65.70
26721;HTU21D;15950;51.112;6.966;2022-07-23T11:32:27;24.13;67.63
26721;HTU21D;15950;51.112;6.966;2022-07-23T11:36:20;24.45;65.28
26721;HTU21D;15950;51.112;6.966;2022-07-23T11:38:21;24.42;66.38
26721;HTU21D;15950;51.112;6.966;2022-07-23T11:40:24;24.55;66.17
26721;HTU21D;15950;51.112;6.966;2022-07-23T11:42:20;24.42;65.88
26721;HTU21D;15950;51.112;6.966;2022-07-23T11:44:37;24.42;66.87
26721;HTU21D;15950;51.112;6.966;2022-07-23T11:46:21;23.88;66.08
26721;HTU21D;15950;51.112;6.966;2022-07-23T11:48:27;23.88;67.43
26721;HTU21D;15950;51.112;6.966;2022-07-23T11:50:24;24.05;68.53
26721;HTU21D;15950;51.112;6.966;2022-07-23T11:52:23;24.30;66.83
26721;HTU21D;15950;51.112;6.966;2022-07-23T11:54:23;24.42;68.30
26721;HTU21D;15950;51.112;6.966;2022-07-23T11:56:23;24.35;67.67
26721;HTU21D;15950;51.112;6.966;2022-07-23T11:58:23;24.28;69.06
26721;HTU21D;15950;51.112;6.966;2022-07-23T12:00:25;23.80;67.90
26721;HTU21D;15950;51.112;6.966;2022-07-23T12:02:25;23.98;69.06
26721;HTU21D;15950;51.112;6.966;2022-07-23T12:06:25;24.14;68.23
26721;HTU21D;15950;51.112;6.966;2022-07-23T12:08:26;24.13;68.10
26721;HTU21D;15950;51.112;6.966;2022-07-23T12:10:28;24.21;68.99
26721;HTU21D;15950;51.112;6.966;2022-07-23T12:12:26;24.38;69.49
26721;HTU21D;15950;51.112;6.966;2022-07-23T12:14:27;24.29;67.17
26721;HTU21D;15950;51.112;6.966;2022-07-23T12:16:27;23.99;67.50
26721;HTU21D;15950;51.112;6.966;2022-07-23T12:18:27;24.30;68.33
26721;HTU21D;15950;51.112;6.966;2022-07-23T12:22:37;24.58;66.41
26721;HTU21D;15950;51.112;6.966;2022-07-23T12:24:28;24.68;64.65
26721;HTU21D;15950;51.112;6.966;2022-07-23T12:26:28;24.88;68.73
26721;HTU21D;15950;51.112;6.966;2022-07-23T12:28:31;24.53;66.71
26721;HTU21D;15950;51.112;6.966;2022-07-23T18:54:44;24.39;68.46
26721;HTU21D;15950;51.112;6.966;2022-07-23T18:56:44;24.45;68.56
26721;HTU21D;15950;51.112;6.966;2022-07-23T18:58:45;24.53;68.16
26721;HTU21D;15950;51.112;6.966;2022-07-23T19:00:45;24.68;67.47
26721;HTU21D;15950;51.112;6.966;2022-07-23T19:02:45;24.77;67.44
26721;HTU21D;15950;51.112;6.966;2022-07-23T19:04:46;24.78;67.83
26721;HTU21D;15950;51.112;6.966;2022-07-23T19:06:46;24.84;68.13
26721;HTU21D;15950;51.112;6.966;2022-07-23T19:08:46;24.84;67.60
26721;HTU21D;15950;51.112;6.966;2022-07-23T19:10:47;24.84;67.90
26721;HTU21D;15950;51.112;6.966;2022-07-23T19:12:47;24.86;67.90
26721;HTU21D;15950;51.112;6.966;2022-07-23T19:14:47;24.85;67.00
26721;HTU21D;15950;51.112;6.966;2022-07-23T19:16:48;24.81;67.30
26721;HTU21D;15950;51.112;6.966;2022-07-23T19:18:48;24.73;67.44
26721;HTU21D;15950;51.112;6.966;2022-07-23T19:20:48;24.76;67.74
26721;HTU21D;15950;51.112;6.966;2022-07-23T19:22:49;24.73;67.74
26721;HTU21D;15950;51.112;6.966;2022-07-23T19:24:49;24.68;68.33
26721;HTU21D;15950;51.112;6.966;2022-07-23T19:26:50;24.61;68.13
26721;HTU21D;15950;51.112;6.966;2022-07-23T19:28:51;24.47;68.83
26721;HTU21D;15950;51.112;6.966;2022-07-23T19:30:51;24.51;68.66
26721;HTU21D;15950;51.112;6.966;2022-07-23T19:32:51;24.36;69.66
26721;HTU21D;15950;51.112;6.966;2022-07-23T19:34:52;24.26;69.56
26721;HTU21D;15950;51.112;6.966;2022-07-23T19:36:52;24.29;69.79
26721;HTU21D;15950;51.112;6.966;2022-07-23T19:38:52;24.20;69.89
26721;HTU21D;15950;51.112;6.966;2022-07-23T19:40:53;24.20;70.39
26721;HTU21D;15950;51.112;6.966;2022-07-23T19:42:53;24.08;70.98
26721;HTU21D;15950;51.112;6.966;2022-07-23T19:44:53;23.91;71.51
26721;HTU21D;15950;51.112;6.966;2022-07-23T19:46:54;23.86;71.62
26721;HTU21D;15950;51.112;6.966;2022-07-23T19:48:54;23.78;72.15